AirNav   Everest Fuels
 
 750 users online  

8LL0 Nance Airport
Old Ripley, Illinois, USA

GOING TO OLD RIPLEY?


FAA INFORMATION EFFECTIVE 18 JUNE 2020

Location

FAA Identifier: 8LL0
Lat/Long: 38-53-15.1680N 089-33-26.3090W
38-53.252800N 089-33.438483W
38.8875467,-89.5573081
(estimated)
Elevation: 570 ft. / 174 m (estimated)
Variation: 01E (1985)
From city: 1 mile SE of OLD RIPLEY, IL
Time zone: UTC -5 (UTC -6 during Standard Time)
Zip code: 62275

Airport Operations

Airport use: Private use. Permission required prior to landing
Activation date: 05/1976
Control tower: no
ARTCC: KANSAS CITY CENTER
FSS: COLUMBIA FLIGHT SERVICE STATION
Attendance: UNATNDD
Wind indicator: yes
Segmented circle: no

Airport Communications

WX AWOS-A at GRE (9 nm E): 123.05 (618-664-1939)
WX AWOS-3 at 3LF (17 nm N): 118.175 (217-324-4735)
WX AWOS-A at VLA (19 nm E): 122.8 (618-283-9595)

Nearby radio navigation aids

VOR radial/distance  VOR name  Freq  Var
TOYr058/19.1TROY VORTAC116.0004E
VLAr232/22.2VANDALIA VOR/DME114.3004E
ENLr322/33.7CENTRALIA VORTAC115.0004E

 
NDB name  Hdg/Dist  Freq  Var  ID
CIVIC MEMORIAL092/23.326301WCVM -.-. ...- --

Airport Services

Runway Information

Runway 9/27

Dimensions: 2100 x 70 ft. / 640 x 21 m
Surface: turf
RUNWAY 9  RUNWAY 27
Traffic pattern: leftleft
Obstructions: nonepline, 350 ft. from runway

Airport Ownership and Management from official FAA records

Ownership: Privately-owned
Owner: THOMAS L. NANCE
443 IL RT 140
POCAHONTAS, IL 62275
Phone 618-664-2688
Manager: THOMAS L. NANCE
443 IL RT 140
POCAHONTAS, IL 62275
Phone 618-664-2688

Airport Operational Statistics

Aircraft based on the field: 1
Single engine airplanes: 1
    

Additional Remarks

FOR CD CTC ST LOUIS APCH AT 314-890-1018.

Instrument Procedures

There are no published instrument procedures at 8LL0.

Some nearby airports with instrument procedures:

KGRE - Greenville Airport (9 nm E)
3LF - Litchfield Municipal Airport (17 nm N)
KVLA - Vandalia Municipal Airport (19 nm E)
KALN - St Louis Regional Airport (23 nm W)
KBLV - Scott Air Force Base/MidAmerica Airport (24 nm SW)
 
Loc | Ops | Rwys | IFR | FBO | Links
Com | Nav | Svcs | Stats | Notes
Area around 8LL0 (Nance Airport)
 
Road maps at: MapQuest Bing Google
 
Aerial photo
No photo
 
Sectional chart

 
Airport distance calculator
Flying to Nance Airport? Find the distance to fly.

From to 8LL0

Sunrise and sunset
Times for 05-Jul-2020
 Local
(UTC-5)
 Zulu
(UTC)
Morning civil twilight05:0910:09
Sunrise05:4010:40
Sunset20:2601:26
Evening civil twilight20:5701:57

Current date and time
Zulu (UTC)  05-Jul-2020 13:43:35
Local (UTC-5)  05-Jul-2020 08:43:35
 
METAR
K3LF 
17nm N 
051315Z AUTO 05003KT 10SM SCT070 25/20 A3002 RMK AO2 T02520203
KALN 
22nm W 
051250Z 01004KT 10SM SKC 25/23 A2999
KBLV 
25nm SW 
051256Z AUTO 00000KT 10SM CLR 26/22 A2997 RMK AO2 SLP148 T02560223 $
KENL 
31nm SE 
051315Z AUTO 00000KT 10SM BKN100 25/23 A2997 RMK AO2 T02500233
KSLO 
31nm SE 
051315Z AUTO 09004KT 10SM BKN100 27/23 A2998 RMK AO2 T02720230
KCPS 
34nm SW 
051253Z 05004KT 10SM CLR 26/22 A2998 RMK AO2 SLP147 T02610217 $
TAF
KBLV 
25nm SW 
050800Z 0508/0614 VRB06KT 9999 SCT050 QNH2987INS WND 08009KT AFT 0514 TX32/0521Z TN22/0511Z
NOTAMs
Click for the latest NOTAMs
NOTAMs are issued by the DoD/FAA and will open in a separate window not controlled by AirNav.

 

 
 

Would you like to see your business listed on this page?

 If your business provides an interesting product or service to pilots, flight crews, aircraft, or users of the Nance Airport, you should consider listing it here.  To start the listing process, click on the button below
 
Add a business
 

Other Pages about Nance Airport

Update a link
 
Copyright © AirNav, LLC. All rights reserved. Privacy Policy  Contact